sensor_id;sensor_type;location;lat;lon;timestamp;P1;durP1;ratioP1;P2;durP2;ratioP2
78344;SDS011;67620;51.134;6.548;2024-01-30T00:01:41;16.17;;;9.10;;
78344;SDS011;67620;51.134;6.548;2024-01-30T00:04:07;15.88;;;9.80;;
78344;SDS011;67620;51.134;6.548;2024-01-30T00:06:32;13.15;;;8.95;;
78344;SDS011;67620;51.134;6.548;2024-01-30T00:08:58;17.98;;;9.00;;
78344;SDS011;67620;51.134;6.548;2024-01-30T00:11:23;16.13;;;9.07;;
78344;SDS011;67620;51.134;6.548;2024-01-30T00:13:53;16.85;;;9.82;;
78344;SDS011;67620;51.134;6.548;2024-01-30T00:16:23;17.73;;;9.80;;
78344;SDS011;67620;51.134;6.548;2024-01-30T00:18:50;19.13;;;10.25;;
78344;SDS011;67620;51.134;6.548;2024-01-30T00:21:16;19.35;;;9.70;;
78344;SDS011;67620;51.134;6.548;2024-01-30T00:23:41;17.75;;;9.82;;
78344;SDS011;67620;51.134;6.548;2024-01-30T00:26:07;15.20;;;9.27;;
78344;SDS011;67620;51.134;6.548;2024-01-30T00:28:32;17.52;;;9.65;;
78344;SDS011;67620;51.134;6.548;2024-01-30T00:30:58;16.60;;;10.20;;
78344;SDS011;67620;51.134;6.548;2024-01-30T00:33:23;16.23;;;10.23;;
78344;SDS011;67620;51.134;6.548;2024-01-30T00:35:49;20.45;;;10.70;;
78344;SDS011;67620;51.134;6.548;2024-01-30T00:38:14;17.05;;;9.77;;
78344;SDS011;67620;51.134;6.548;2024-01-30T00:40:40;17.88;;;10.70;;
78344;SDS011;67620;51.134;6.548;2024-01-30T00:43:06;20.02;;;10.43;;
78344;SDS011;67620;51.134;6.548;2024-01-30T00:45:31;16.02;;;10.45;;
78344;SDS011;67620;51.134;6.548;2024-01-30T00:47:57;19.25;;;11.15;;
78344;SDS011;67620;51.134;6.548;2024-01-30T00:50:22;18.00;;;10.98;;
78344;SDS011;67620;51.134;6.548;2024-01-30T00:52:48;17.58;;;11.23;;
78344;SDS011;67620;51.134;6.548;2024-01-30T00:55:13;19.25;;;10.95;;
78344;SDS011;67620;51.134;6.548;2024-01-30T00:57:39;18.45;;;10.93;;
78344;SDS011;67620;51.134;6.548;2024-01-30T01:00:07;21.30;;;11.55;;
78344;SDS011;67620;51.134;6.548;2024-01-30T01:02:34;16.77;;;10.60;;
78344;SDS011;67620;51.134;6.548;2024-01-30T01:05:00;18.13;;;11.25;;
78344;SDS011;67620;51.134;6.548;2024-01-30T01:07:26;16.95;;;11.00;;
78344;SDS011;67620;51.134;6.548;2024-01-30T01:09:51;17.55;;;11.05;;
78344;SDS011;67620;51.134;6.548;2024-01-30T01:12:17;18.50;;;10.55;;
78344;SDS011;67620;51.134;6.548;2024-01-30T01:14:43;17.45;;;10.05;;
78344;SDS011;67620;51.134;6.548;2024-01-30T01:17:08;18.98;;;11.43;;
78344;SDS011;67620;51.134;6.548;2024-01-30T01:19:34;14.60;;;9.90;;
78344;SDS011;67620;51.134;6.548;2024-01-30T01:21:59;19.25;;;11.02;;
78344;SDS011;67620;51.134;6.548;2024-01-30T01:24:25;21.48;;;11.13;;
78344;SDS011;67620;51.134;6.548;2024-01-30T01:26:50;18.77;;;10.38;;
78344;SDS011;67620;51.134;6.548;2024-01-30T01:29:16;15.45;;;10.43;;
78344;SDS011;67620;51.134;6.548;2024-01-30T01:31:41;20.02;;;11.07;;
78344;SDS011;67620;51.134;6.548;2024-01-30T01:34:12;17.33;;;10.40;;
78344;SDS011;67620;51.134;6.548;2024-01-30T01:36:38;17.00;;;10.45;;
78344;SDS011;67620;51.134;6.548;2024-01-30T01:39:04;20.20;;;10.93;;
78344;SDS011;67620;51.134;6.548;2024-01-30T01:41:30;16.33;;;10.15;;
78344;SDS011;67620;51.134;6.548;2024-01-30T01:43:57;20.13;;;11.52;;
78344;SDS011;67620;51.134;6.548;2024-01-30T01:46:22;19.15;;;11.38;;
78344;SDS011;67620;51.134;6.548;2024-01-30T01:48:48;19.60;;;11.50;;
78344;SDS011;67620;51.134;6.548;2024-01-30T01:51:14;19.77;;;11.18;;
78344;SDS011;67620;51.134;6.548;2024-01-30T01:53:41;18.30;;;11.43;;
78344;SDS011;67620;51.134;6.548;2024-01-30T01:56:06;21.20;;;12.25;;
78344;SDS011;67620;51.134;6.548;2024-01-30T01:58:32;22.17;;;11.90;;
78344;SDS011;67620;51.134;6.548;2024-01-30T02:00:58;16.33;;;10.50;;
78344;SDS011;67620;51.134;6.548;2024-01-30T02:05:52;18.88;;;11.70;;
78344;SDS011;67620;51.134;6.548;2024-01-30T02:08:19;20.05;;;11.05;;
78344;SDS011;67620;51.134;6.548;2024-01-30T02:10:45;16.63;;;10.57;;
78344;SDS011;67620;51.134;6.548;2024-01-30T02:13:10;18.67;;;11.73;;
78344;SDS011;67620;51.134;6.548;2024-01-30T02:15:36;16.85;;;10.88;;
78344;SDS011;67620;51.134;6.548;2024-01-30T02:18:01;19.60;;;11.63;;
78344;SDS011;67620;51.134;6.548;2024-01-30T02:20:27;19.98;;;10.40;;
78344;SDS011;67620;51.134;6.548;2024-01-30T02:22:56;18.50;;;10.82;;
78344;SDS011;67620;51.134;6.548;2024-01-30T02:25:30;20.20;;;11.23;;
78344;SDS011;67620;51.134;6.548;2024-01-30T02:27:57;17.13;;;10.77;;
78344;SDS011;67620;51.134;6.548;2024-01-30T02:30:23;16.48;;;10.30;;
78344;SDS011;67620;51.134;6.548;2024-01-30T02:32:48;17.55;;;11.45;;
78344;SDS011;67620;51.134;6.548;2024-01-30T02:35:14;20.08;;;11.70;;
78344;SDS011;67620;51.134;6.548;2024-01-30T02:37:39;15.30;;;11.25;;
78344;SDS011;67620;51.134;6.548;2024-01-30T02:40:05;17.85;;;10.23;;
78344;SDS011;67620;51.134;6.548;2024-01-30T02:42:31;18.27;;;10.18;;
78344;SDS011;67620;51.134;6.548;2024-01-30T02:44:56;17.15;;;10.48;;
78344;SDS011;67620;51.134;6.548;2024-01-30T02:47:22;15.20;;;10.02;;
78344;SDS011;67620;51.134;6.548;2024-01-30T02:49:47;14.50;;;10.30;;
78344;SDS011;67620;51.134;6.548;2024-01-30T02:52:13;15.73;;;10.15;;
78344;SDS011;67620;51.134;6.548;2024-01-30T02:54:38;21.42;;;11.25;;
78344;SDS011;67620;51.134;6.548;2024-01-30T02:57:04;19.17;;;10.18;;
78344;SDS011;67620;51.134;6.548;2024-01-30T02:59:29;16.88;;;9.90;;
78344;SDS011;67620;51.134;6.548;2024-01-30T03:01:58;17.42;;;9.90;;
78344;SDS011;67620;51.134;6.548;2024-01-30T03:04:24;17.10;;;10.40;;
78344;SDS011;67620;51.134;6.548;2024-01-30T03:06:49;18.08;;;10.15;;
78344;SDS011;67620;51.134;6.548;2024-01-30T03:09:18;17.10;;;10.70;;
78344;SDS011;67620;51.134;6.548;2024-01-30T03:11:43;18.45;;;10.30;;
78344;SDS011;67620;51.134;6.548;2024-01-30T03:14:09;17.48;;;11.13;;
78344;SDS011;67620;51.134;6.548;2024-01-30T03:16:36;22.13;;;10.27;;
78344;SDS011;67620;51.134;6.548;2024-01-30T03:19:02;20.75;;;11.18;;
78344;SDS011;67620;51.134;6.548;2024-01-30T03:21:28;19.52;;;10.20;;
78344;SDS011;67620;51.134;6.548;2024-01-30T03:23:54;15.85;;;9.75;;
78344;SDS011;67620;51.134;6.548;2024-01-30T03:26:19;17.73;;;10.18;;
78344;SDS011;67620;51.134;6.548;2024-01-30T03:28:45;19.27;;;11.23;;
78344;SDS011;67620;51.134;6.548;2024-01-30T03:31:12;20.50;;;10.23;;
78344;SDS011;67620;51.134;6.548;2024-01-30T03:33:39;15.38;;;10.23;;
78344;SDS011;67620;51.134;6.548;2024-01-30T03:36:04;17.90;;;10.88;;
78344;SDS011;67620;51.134;6.548;2024-01-30T03:38:30;18.05;;;9.95;;
78344;SDS011;67620;51.134;6.548;2024-01-30T03:40:57;16.50;;;10.10;;
78344;SDS011;67620;51.134;6.548;2024-01-30T03:45:49;16.45;;;8.90;;
78344;SDS011;67620;51.134;6.548;2024-01-30T03:48:15;15.77;;;9.10;;
78344;SDS011;67620;51.134;6.548;2024-01-30T03:50:40;15.65;;;9.93;;
78344;SDS011;67620;51.134;6.548;2024-01-30T03:53:06;16.70;;;9.80;;
78344;SDS011;67620;51.134;6.548;2024-01-30T03:55:31;19.17;;;10.48;;
78344;SDS011;67620;51.134;6.548;2024-01-30T03:57:57;15.30;;;9.27;;
78344;SDS011;67620;51.134;6.548;2024-01-30T04:00:22;17.25;;;9.68;;
78344;SDS011;67620;51.134;6.548;2024-01-30T04:02:48;16.33;;;9.85;;
78344;SDS011;67620;51.134;6.548;2024-01-30T04:05:16;21.67;;;10.77;;
78344;SDS011;67620;51.134;6.548;2024-01-30T04:07:41;14.32;;;9.48;;
78344;SDS011;67620;51.134;6.548;2024-01-30T04:10:07;16.95;;;9.38;;
78344;SDS011;67620;51.134;6.548;2024-01-30T04:12:34;21.83;;;10.00;;
78344;SDS011;67620;51.134;6.548;2024-01-30T04:15:00;16.55;;;9.88;;
78344;SDS011;67620;51.134;6.548;2024-01-30T04:17:26;16.55;;;9.50;;
78344;SDS011;67620;51.134;6.548;2024-01-30T04:19:53;20.80;;;10.48;;
78344;SDS011;67620;51.134;6.548;2024-01-30T04:22:19;18.23;;;10.55;;
78344;SDS011;67620;51.134;6.548;2024-01-30T04:24:45;16.88;;;10.00;;
78344;SDS011;67620;51.134;6.548;2024-01-30T04:27:10;16.52;;;10.30;;
78344;SDS011;67620;51.134;6.548;2024-01-30T04:29:36;14.07;;;8.80;;
78344;SDS011;67620;51.134;6.548;2024-01-30T04:32:01;18.25;;;10.65;;
78344;SDS011;67620;51.134;6.548;2024-01-30T04:34:27;14.50;;;9.25;;
78344;SDS011;67620;51.134;6.548;2024-01-30T04:36:52;15.75;;;9.77;;
78344;SDS011;67620;51.134;6.548;2024-01-30T04:39:18;16.98;;;10.02;;
78344;SDS011;67620;51.134;6.548;2024-01-30T04:41:43;15.45;;;10.00;;
78344;SDS011;67620;51.134;6.548;2024-01-30T04:44:09;17.25;;;10.38;;
78344;SDS011;67620;51.134;6.548;2024-01-30T04:46:34;19.33;;;11.73;;
78344;SDS011;67620;51.134;6.548;2024-01-30T04:49:00;16.20;;;10.73;;
78344;SDS011;67620;51.134;6.548;2024-01-30T04:51:25;19.40;;;10.07;;
78344;SDS011;67620;51.134;6.548;2024-01-30T04:53:51;18.63;;;10.65;;
78344;SDS011;67620;51.134;6.548;2024-01-30T04:56:16;18.25;;;10.48;;
78344;SDS011;67620;51.134;6.548;2024-01-30T04:58:42;19.45;;;11.60;;
78344;SDS011;67620;51.134;6.548;2024-01-30T05:01:07;18.55;;;10.43;;
78344;SDS011;67620;51.134;6.548;2024-01-30T05:03:33;17.88;;;10.73;;
78344;SDS011;67620;51.134;6.548;2024-01-30T05:05:59;18.67;;;10.98;;
78344;SDS011;67620;51.134;6.548;2024-01-30T05:08:25;20.70;;;11.02;;
78344;SDS011;67620;51.134;6.548;2024-01-30T05:10:50;20.20;;;10.68;;
78344;SDS011;67620;51.134;6.548;2024-01-30T05:13:16;19.83;;;10.82;;
78344;SDS011;67620;51.134;6.548;2024-01-30T05:15:42;17.80;;;9.68;;
78344;SDS011;67620;51.134;6.548;2024-01-30T05:18:07;17.17;;;10.82;;
78344;SDS011;67620;51.134;6.548;2024-01-30T05:20:33;17.30;;;11.05;;
78344;SDS011;67620;51.134;6.548;2024-01-30T05:22:58;16.58;;;10.50;;
78344;SDS011;67620;51.134;6.548;2024-01-30T05:25:24;16.13;;;10.13;;
78344;SDS011;67620;51.134;6.548;2024-01-30T05:27:49;18.63;;;10.68;;
78344;SDS011;67620;51.134;6.548;2024-01-30T05:30:15;19.00;;;10.80;;
78344;SDS011;67620;51.134;6.548;2024-01-30T05:32:40;30.88;;;17.83;;
78344;SDS011;67620;51.134;6.548;2024-01-30T05:35:06;36.78;;;18.10;;
78344;SDS011;67620;51.134;6.548;2024-01-30T05:37:33;26.10;;;14.45;;
78344;SDS011;67620;51.134;6.548;2024-01-30T05:39:58;21.02;;;10.68;;
78344;SDS011;67620;51.134;6.548;2024-01-30T05:42:24;18.38;;;10.73;;
78344;SDS011;67620;51.134;6.548;2024-01-30T05:44:50;16.25;;;10.25;;
78344;SDS011;67620;51.134;6.548;2024-01-30T05:47:15;18.95;;;10.27;;
78344;SDS011;67620;51.134;6.548;2024-01-30T05:49:41;28.63;;;16.27;;
78344;SDS011;67620;51.134;6.548;2024-01-30T05:52:07;32.67;;;16.65;;
78344;SDS011;67620;51.134;6.548;2024-01-30T05:54:32;19.75;;;11.48;;
78344;SDS011;67620;51.134;6.548;2024-01-30T05:56:58;18.55;;;9.45;;
78344;SDS011;67620;51.134;6.548;2024-01-30T05:59:24;19.35;;;9.90;;
78344;SDS011;67620;51.134;6.548;2024-01-30T06:01:49;16.95;;;9.15;;
78344;SDS011;67620;51.134;6.548;2024-01-30T06:04:15;18.52;;;10.52;;
78344;SDS011;67620;51.134;6.548;2024-01-30T06:06:41;19.98;;;10.98;;
78344;SDS011;67620;51.134;6.548;2024-01-30T06:09:06;17.83;;;9.23;;
78344;SDS011;67620;51.134;6.548;2024-01-30T06:11:35;21.98;;;10.63;;
78344;SDS011;67620;51.134;6.548;2024-01-30T06:14:00;15.93;;;9.55;;
78344;SDS011;67620;51.134;6.548;2024-01-30T06:16:26;15.57;;;9.30;;
78344;SDS011;67620;51.134;6.548;2024-01-30T06:18:54;17.40;;;9.68;;
78344;SDS011;67620;51.134;6.548;2024-01-30T06:21:20;17.38;;;10.23;;
78344;SDS011;67620;51.134;6.548;2024-01-30T06:23:46;19.38;;;9.35;;
78344;SDS011;67620;51.134;6.548;2024-01-30T06:26:12;15.10;;;9.32;;
78344;SDS011;67620;51.134;6.548;2024-01-30T06:28:37;14.73;;;9.85;;
78344;SDS011;67620;51.134;6.548;2024-01-30T06:31:03;16.55;;;9.23;;
78344;SDS011;67620;51.134;6.548;2024-01-30T06:33:28;16.63;;;9.40;;
78344;SDS011;67620;51.134;6.548;2024-01-30T06:35:54;15.80;;;9.68;;
78344;SDS011;67620;51.134;6.548;2024-01-30T06:38:19;15.88;;;9.25;;
78344;SDS011;67620;51.134;6.548;2024-01-30T06:40:45;14.40;;;9.35;;
78344;SDS011;67620;51.134;6.548;2024-01-30T06:43:10;18.35;;;9.75;;
78344;SDS011;67620;51.134;6.548;2024-01-30T06:45:36;18.33;;;9.57;;
78344;SDS011;67620;51.134;6.548;2024-01-30T06:48:02;16.95;;;10.27;;
78344;SDS011;67620;51.134;6.548;2024-01-30T06:50:28;15.85;;;9.27;;
78344;SDS011;67620;51.134;6.548;2024-01-30T06:52:54;13.88;;;8.95;;
78344;SDS011;67620;51.134;6.548;2024-01-30T06:55:19;14.85;;;8.55;;
78344;SDS011;67620;51.134;6.548;2024-01-30T06:57:45;13.90;;;8.60;;
78344;SDS011;67620;51.134;6.548;2024-01-30T07:00:10;14.20;;;9.20;;
78344;SDS011;67620;51.134;6.548;2024-01-30T07:02:36;16.05;;;9.35;;
78344;SDS011;67620;51.134;6.548;2024-01-30T07:05:02;15.65;;;9.80;;
78344;SDS011;67620;51.134;6.548;2024-01-30T07:07:28;16.42;;;9.32;;
78344;SDS011;67620;51.134;6.548;2024-01-30T07:09:53;18.80;;;9.98;;
78344;SDS011;67620;51.134;6.548;2024-01-30T07:12:21;17.27;;;9.60;;
78344;SDS011;67620;51.134;6.548;2024-01-30T07:14:48;16.40;;;9.45;;
78344;SDS011;67620;51.134;6.548;2024-01-30T07:17:13;17.17;;;9.88;;
78344;SDS011;67620;51.134;6.548;2024-01-30T07:19:39;17.42;;;9.55;;
78344;SDS011;67620;51.134;6.548;2024-01-30T07:22:04;17.75;;;10.27;;
78344;SDS011;67620;51.134;6.548;2024-01-30T07:24:30;15.48;;;9.98;;
78344;SDS011;67620;51.134;6.548;2024-01-30T07:26:55;17.67;;;10.38;;
78344;SDS011;67620;51.134;6.548;2024-01-30T07:31:47;17.70;;;9.57;;
78344;SDS011;67620;51.134;6.548;2024-01-30T07:34:13;16.17;;;9.07;;
78344;SDS011;67620;51.134;6.548;2024-01-30T07:36:38;16.83;;;10.27;;
78344;SDS011;67620;51.134;6.548;2024-01-30T07:39:04;15.95;;;10.02;;
78344;SDS011;67620;51.134;6.548;2024-01-30T07:41:30;18.85;;;9.95;;
78344;SDS011;67620;51.134;6.548;2024-01-30T07:43:55;17.73;;;9.57;;
78344;SDS011;67620;51.134;6.548;2024-01-30T07:46:21;18.58;;;9.98;;
78344;SDS011;67620;51.134;6.548;2024-01-30T07:48:46;17.30;;;9.93;;
78344;SDS011;67620;51.134;6.548;2024-01-30T07:51:11;15.80;;;9.27;;
78344;SDS011;67620;51.134;6.548;2024-01-30T07:53:37;17.50;;;9.23;;
78344;SDS011;67620;51.134;6.548;2024-01-30T07:56:03;16.52;;;9.57;;
78344;SDS011;67620;51.134;6.548;2024-01-30T07:58:28;17.27;;;9.45;;
78344;SDS011;67620;51.134;6.548;2024-01-30T08:00:54;14.82;;;8.80;;
78344;SDS011;67620;51.134;6.548;2024-01-30T08:03:21;16.27;;;8.60;;
78344;SDS011;67620;51.134;6.548;2024-01-30T08:05:47;14.98;;;8.50;;
78344;SDS011;67620;51.134;6.548;2024-01-30T08:08:12;12.93;;;8.20;;
78344;SDS011;67620;51.134;6.548;2024-01-30T08:10:38;15.02;;;8.25;;
78344;SDS011;67620;51.134;6.548;2024-01-30T08:13:03;13.80;;;8.73;;
78344;SDS011;67620;51.134;6.548;2024-01-30T08:15:29;14.70;;;8.75;;
78344;SDS011;67620;51.134;6.548;2024-01-30T08:17:54;15.95;;;8.57;;
78344;SDS011;67620;51.134;6.548;2024-01-30T08:20:23;16.00;;;8.82;;
78344;SDS011;67620;51.134;6.548;2024-01-30T08:25:14;18.27;;;9.75;;
78344;SDS011;67620;51.134;6.548;2024-01-30T08:27:40;16.08;;;9.25;;
78344;SDS011;67620;51.134;6.548;2024-01-30T08:30:06;16.88;;;8.68;;
78344;SDS011;67620;51.134;6.548;2024-01-30T08:32:32;15.52;;;9.05;;
78344;SDS011;67620;51.134;6.548;2024-01-30T08:34:57;12.15;;;8.35;;
78344;SDS011;67620;51.134;6.548;2024-01-30T08:37:23;13.07;;;8.30;;
78344;SDS011;67620;51.134;6.548;2024-01-30T08:39:49;15.30;;;8.40;;
78344;SDS011;67620;51.134;6.548;2024-01-30T08:42:14;15.82;;;9.18;;
78344;SDS011;67620;51.134;6.548;2024-01-30T08:44:40;12.52;;;8.55;;
78344;SDS011;67620;51.134;6.548;2024-01-30T08:47:05;19.60;;;8.60;;
78344;SDS011;67620;51.134;6.548;2024-01-30T08:49:31;15.30;;;8.50;;
78344;SDS011;67620;51.134;6.548;2024-01-30T08:51:56;13.40;;;8.40;;
78344;SDS011;67620;51.134;6.548;2024-01-30T08:54:23;16.23;;;8.27;;
78344;SDS011;67620;51.134;6.548;2024-01-30T08:56:48;16.13;;;8.95;;
78344;SDS011;67620;51.134;6.548;2024-01-30T08:59:14;13.68;;;8.60;;
78344;SDS011;67620;51.134;6.548;2024-01-30T09:01:40;16.70;;;9.43;;
78344;SDS011;67620;51.134;6.548;2024-01-30T09:04:05;13.75;;;8.30;;
78344;SDS011;67620;51.134;6.548;2024-01-30T09:06:31;14.38;;;8.18;;
78344;SDS011;67620;51.134;6.548;2024-01-30T09:08:57;13.30;;;8.23;;
78344;SDS011;67620;51.134;6.548;2024-01-30T09:11:23;18.00;;;8.90;;
78344;SDS011;67620;51.134;6.548;2024-01-30T09:13:48;15.27;;;9.00;;
78344;SDS011;67620;51.134;6.548;2024-01-30T09:16:14;14.45;;;8.55;;
78344;SDS011;67620;51.134;6.548;2024-01-30T09:18:41;15.75;;;8.45;;
78344;SDS011;67620;51.134;6.548;2024-01-30T09:21:06;15.80;;;8.20;;
78344;SDS011;67620;51.134;6.548;2024-01-30T09:23:32;13.45;;;8.00;;
78344;SDS011;67620;51.134;6.548;2024-01-30T09:25:58;13.75;;;8.70;;
78344;SDS011;67620;51.134;6.548;2024-01-30T09:28:24;14.73;;;9.40;;
78344;SDS011;67620;51.134;6.548;2024-01-30T09:30:49;18.05;;;9.13;;
78344;SDS011;67620;51.134;6.548;2024-01-30T09:33:15;16.42;;;8.95;;
78344;SDS011;67620;51.134;6.548;2024-01-30T09:35:40;18.10;;;8.93;;
78344;SDS011;67620;51.134;6.548;2024-01-30T09:38:06;17.17;;;8.75;;
78344;SDS011;67620;51.134;6.548;2024-01-30T09:40:31;14.10;;;8.70;;
78344;SDS011;67620;51.134;6.548;2024-01-30T09:42:57;15.27;;;9.15;;
78344;SDS011;67620;51.134;6.548;2024-01-30T09:45:25;16.48;;;9.45;;
78344;SDS011;67620;51.134;6.548;2024-01-30T09:47:51;14.07;;;9.45;;
78344;SDS011;67620;51.134;6.548;2024-01-30T09:50:18;14.95;;;9.80;;
78344;SDS011;67620;51.134;6.548;2024-01-30T09:52:45;15.57;;;9.43;;
78344;SDS011;67620;51.134;6.548;2024-01-30T09:57:36;13.90;;;9.32;;
78344;SDS011;67620;51.134;6.548;2024-01-30T10:00:03;15.57;;;8.32;;
78344;SDS011;67620;51.134;6.548;2024-01-30T10:02:30;17.33;;;9.52;;
78344;SDS011;67620;51.134;6.548;2024-01-30T10:04:56;18.92;;;9.88;;
78344;SDS011;67620;51.134;6.548;2024-01-30T10:07:22;17.20;;;9.75;;
78344;SDS011;67620;51.134;6.548;2024-01-30T10:09:49;18.35;;;9.82;;
78344;SDS011;67620;51.134;6.548;2024-01-30T10:12:15;19.55;;;10.23;;
78344;SDS011;67620;51.134;6.548;2024-01-30T10:14:41;16.40;;;9.60;;
78344;SDS011;67620;51.134;6.548;2024-01-30T10:17:08;17.65;;;9.68;;
78344;SDS011;67620;51.134;6.548;2024-01-30T10:19:35;18.33;;;10.48;;
78344;SDS011;67620;51.134;6.548;2024-01-30T10:22:01;15.65;;;9.13;;
78344;SDS011;67620;51.134;6.548;2024-01-30T10:24:27;16.40;;;10.18;;
78344;SDS011;67620;51.134;6.548;2024-01-30T10:26:54;16.85;;;10.00;;
78344;SDS011;67620;51.134;6.548;2024-01-30T10:29:20;18.55;;;9.98;;
78344;SDS011;67620;51.134;6.548;2024-01-30T10:31:45;22.13;;;10.63;;
78344;SDS011;67620;51.134;6.548;2024-01-30T10:34:12;18.45;;;10.68;;
78344;SDS011;67620;51.134;6.548;2024-01-30T10:36:40;15.02;;;9.40;;
78344;SDS011;67620;51.134;6.548;2024-01-30T10:39:11;17.60;;;10.25;;
78344;SDS011;67620;51.134;6.548;2024-01-30T10:41:43;17.73;;;9.57;;
78344;SDS011;67620;51.134;6.548;2024-01-30T10:44:09;17.73;;;9.05;;
78344;SDS011;67620;51.134;6.548;2024-01-30T10:49:02;17.52;;;8.60;;
78344;SDS011;67620;51.134;6.548;2024-01-30T10:51:29;14.52;;;8.27;;
78344;SDS011;67620;51.134;6.548;2024-01-30T10:53:56;16.73;;;9.02;;
78344;SDS011;67620;51.134;6.548;2024-01-30T10:56:23;18.20;;;9.00;;
78344;SDS011;67620;51.134;6.548;2024-01-30T10:58:49;16.67;;;9.25;;
78344;SDS011;67620;51.134;6.548;2024-01-30T11:01:17;14.20;;;9.07;;
78344;SDS011;67620;51.134;6.548;2024-01-30T11:03:48;16.13;;;9.00;;
78344;SDS011;67620;51.134;6.548;2024-01-30T11:06:17;16.92;;;8.80;;
78344;SDS011;67620;51.134;6.548;2024-01-30T11:08:46;14.57;;;8.15;;
78344;SDS011;67620;51.134;6.548;2024-01-30T11:11:11;16.58;;;8.15;;
78344;SDS011;67620;51.134;6.548;2024-01-30T11:13:37;17.25;;;7.55;;
78344;SDS011;67620;51.134;6.548;2024-01-30T11:16:03;15.05;;;8.02;;
78344;SDS011;67620;51.134;6.548;2024-01-30T11:18:30;14.75;;;7.93;;
78344;SDS011;67620;51.134;6.548;2024-01-30T11:20:57;11.23;;;5.35;;
78344;SDS011;67620;51.134;6.548;2024-01-30T11:23:27;9.98;;;5.15;;
78344;SDS011;67620;51.134;6.548;2024-01-30T11:25:53;12.52;;;4.90;;
78344;SDS011;67620;51.134;6.548;2024-01-30T11:28:20;8.20;;;4.95;;
78344;SDS011;67620;51.134;6.548;2024-01-30T11:30:46;14.32;;;5.18;;
78344;SDS011;67620;51.134;6.548;2024-01-30T11:33:12;10.93;;;5.25;;
78344;SDS011;67620;51.134;6.548;2024-01-30T11:35:43;11.27;;;4.80;;
78344;SDS011;67620;51.134;6.548;2024-01-30T11:38:10;11.60;;;4.57;;
78344;SDS011;67620;51.134;6.548;2024-01-30T11:40:39;10.15;;;4.55;;
78344;SDS011;67620;51.134;6.548;2024-01-30T11:43:06;11.13;;;5.32;;
78344;SDS011;67620;51.134;6.548;2024-01-30T11:45:33;12.82;;;5.15;;
78344;SDS011;67620;51.134;6.548;2024-01-30T11:47:59;11.52;;;4.57;;
78344;SDS011;67620;51.134;6.548;2024-01-30T11:50:26;8.52;;;4.55;;
78344;SDS011;67620;51.134;6.548;2024-01-30T11:52:52;11.60;;;4.57;;
78344;SDS011;67620;51.134;6.548;2024-01-30T11:55:19;11.35;;;4.63;;
78344;SDS011;67620;51.134;6.548;2024-01-30T11:57:45;13.75;;;4.70;;
78344;SDS011;67620;51.134;6.548;2024-01-30T12:00:14;13.02;;;5.13;;
78344;SDS011;67620;51.134;6.548;2024-01-30T12:02:40;14.45;;;6.10;;
78344;SDS011;67620;51.134;6.548;2024-01-30T12:05:06;9.20;;;5.35;;
78344;SDS011;67620;51.134;6.548;2024-01-30T12:07:32;11.57;;;5.18;;
78344;SDS011;67620;51.134;6.548;2024-01-30T12:09:58;9.07;;;4.75;;
78344;SDS011;67620;51.134;6.548;2024-01-30T12:12:25;11.18;;;5.28;;
78344;SDS011;67620;51.134;6.548;2024-01-30T12:14:51;10.82;;;5.05;;
78344;SDS011;67620;51.134;6.548;2024-01-30T12:17:30;14.18;;;5.65;;
78344;SDS011;67620;51.134;6.548;2024-01-30T12:20:05;8.25;;;4.70;;
78344;SDS011;67620;51.134;6.548;2024-01-30T12:22:43;12.25;;;5.03;;
78344;SDS011;67620;51.134;6.548;2024-01-30T12:25:13;11.70;;;6.20;;
78344;SDS011;67620;51.134;6.548;2024-01-30T12:27:41;8.85;;;4.70;;
78344;SDS011;67620;51.134;6.548;2024-01-30T12:30:09;10.68;;;5.68;;
78344;SDS011;67620;51.134;6.548;2024-01-30T12:32:36;11.00;;;6.20;;
78344;SDS011;67620;51.134;6.548;2024-01-30T12:37:29;9.85;;;5.22;;
78344;SDS011;67620;51.134;6.548;2024-01-30T12:39:55;10.38;;;5.78;;
78344;SDS011;67620;51.134;6.548;2024-01-30T12:42:21;11.00;;;5.75;;
78344;SDS011;67620;51.134;6.548;2024-01-30T12:44:47;8.73;;;5.43;;
78344;SDS011;67620;51.134;6.548;2024-01-30T12:47:13;10.43;;;5.95;;
78344;SDS011;67620;51.134;6.548;2024-01-30T12:49:41;9.02;;;5.22;;
78344;SDS011;67620;51.134;6.548;2024-01-30T12:52:08;8.90;;;5.60;;
78344;SDS011;67620;51.134;6.548;2024-01-30T12:54:33;10.18;;;5.10;;
78344;SDS011;67620;51.134;6.548;2024-01-30T12:56:59;11.88;;;5.90;;
78344;SDS011;67620;51.134;6.548;2024-01-30T12:59:24;12.85;;;5.85;;
78344;SDS011;67620;51.134;6.548;2024-01-30T13:01:50;8.93;;;4.95;;
78344;SDS011;67620;51.134;6.548;2024-01-30T13:04:15;10.10;;;5.70;;
78344;SDS011;67620;51.134;6.548;2024-01-30T13:06:41;11.82;;;5.45;;
78344;SDS011;67620;51.134;6.548;2024-01-30T13:09:07;10.32;;;5.30;;
78344;SDS011;67620;51.134;6.548;2024-01-30T13:11:32;10.40;;;6.10;;
78344;SDS011;67620;51.134;6.548;2024-01-30T13:16:25;9.13;;;5.20;;
78344;SDS011;67620;51.134;6.548;2024-01-30T13:18:50;17.25;;;6.75;;
78344;SDS011;67620;51.134;6.548;2024-01-30T13:21:16;11.02;;;6.47;;
78344;SDS011;67620;51.134;6.548;2024-01-30T13:23:42;10.88;;;6.05;;
78344;SDS011;67620;51.134;6.548;2024-01-30T13:26:08;15.10;;;6.70;;
78344;SDS011;67620;51.134;6.548;2024-01-30T13:28:33;9.98;;;5.82;;
78344;SDS011;67620;51.134;6.548;2024-01-30T13:30:59;10.85;;;6.35;;
78344;SDS011;67620;51.134;6.548;2024-01-30T13:33:24;11.23;;;6.78;;
78344;SDS011;67620;51.134;6.548;2024-01-30T13:35:51;12.00;;;6.65;;
78344;SDS011;67620;51.134;6.548;2024-01-30T13:38:17;10.45;;;6.03;;
78344;SDS011;67620;51.134;6.548;2024-01-30T13:40:42;15.40;;;6.85;;
78344;SDS011;67620;51.134;6.548;2024-01-30T13:43:08;11.50;;;6.07;;
78344;SDS011;67620;51.134;6.548;2024-01-30T13:45:33;13.27;;;6.65;;
78344;SDS011;67620;51.134;6.548;2024-01-30T13:47:59;9.55;;;6.57;;
78344;SDS011;67620;51.134;6.548;2024-01-30T13:50:24;12.90;;;6.15;;
78344;SDS011;67620;51.134;6.548;2024-01-30T13:52:50;20.10;;;7.97;;
78344;SDS011;67620;51.134;6.548;2024-01-30T13:55:15;11.52;;;6.30;;
78344;SDS011;67620;51.134;6.548;2024-01-30T13:57:41;13.32;;;6.95;;
78344;SDS011;67620;51.134;6.548;2024-01-30T14:00:06;10.90;;;6.55;;
78344;SDS011;67620;51.134;6.548;2024-01-30T14:02:32;15.82;;;7.32;;
78344;SDS011;67620;51.134;6.548;2024-01-30T14:04:58;13.50;;;6.88;;
78344;SDS011;67620;51.134;6.548;2024-01-30T14:07:24;13.40;;;6.82;;
78344;SDS011;67620;51.134;6.548;2024-01-30T14:09:49;9.38;;;6.32;;
78344;SDS011;67620;51.134;6.548;2024-01-30T14:12:15;9.90;;;6.03;;
78344;SDS011;67620;51.134;6.548;2024-01-30T14:14:41;11.48;;;6.38;;
78344;SDS011;67620;51.134;6.548;2024-01-30T14:17:06;11.63;;;6.50;;
78344;SDS011;67620;51.134;6.548;2024-01-30T14:19:32;13.00;;;6.22;;
78344;SDS011;67620;51.134;6.548;2024-01-30T14:21:59;15.20;;;6.63;;
78344;SDS011;67620;51.134;6.548;2024-01-30T14:24:24;14.63;;;7.45;;
78344;SDS011;67620;51.134;6.548;2024-01-30T14:26:50;15.95;;;7.07;;
78344;SDS011;67620;51.134;6.548;2024-01-30T14:29:16;11.18;;;6.15;;
78344;SDS011;67620;51.134;6.548;2024-01-30T14:31:41;10.15;;;5.88;;
78344;SDS011;67620;51.134;6.548;2024-01-30T14:34:07;15.10;;;6.55;;
78344;SDS011;67620;51.134;6.548;2024-01-30T14:36:33;12.68;;;6.13;;
78344;SDS011;67620;51.134;6.548;2024-01-30T14:38:59;11.38;;;5.72;;
78344;SDS011;67620;51.134;6.548;2024-01-30T14:41:24;12.65;;;7.10;;
78344;SDS011;67620;51.134;6.548;2024-01-30T14:43:50;11.13;;;5.93;;